createdAt,value
2019-04-07T00:00:06.471Z,20.10
2019-04-07T00:02:35.869Z,20.10
2019-04-07T00:05:12.404Z,20.10
2019-04-07T00:07:36.251Z,20.10
2019-04-07T00:10:05.921Z,20.10
2019-04-07T00:12:35.007Z,20.10
2019-04-07T00:15:04.085Z,20.10
2019-04-07T00:17:33.140Z,20.10
2019-04-07T00:20:02.473Z,20.10
2019-04-07T00:22:31.655Z,20.00
2019-04-07T00:25:00.753Z,19.90
2019-04-07T00:27:30.341Z,19.80
2019-04-07T00:30:00.030Z,19.80
2019-04-07T00:32:29.219Z,19.80
2019-04-07T00:34:58.618Z,19.80
2019-04-07T00:37:28.326Z,19.70
2019-04-07T00:39:57.775Z,19.70
2019-04-07T00:42:27.958Z,19.70
2019-04-07T00:44:57.035Z,19.70
2019-04-07T00:47:26.160Z,19.70
2019-04-07T00:49:55.593Z,19.60
2019-04-07T00:52:25.409Z,19.60
2019-04-07T00:54:54.579Z,19.60
2019-04-07T00:57:23.868Z,19.60
2019-04-07T00:59:52.939Z,19.60
2019-04-07T01:02:22.331Z,19.60
2019-04-07T01:04:51.948Z,19.60
2019-04-07T01:07:21.020Z,19.50
2019-04-07T01:09:50.709Z,19.50
2019-04-07T01:12:20.414Z,19.50
2019-04-07T01:14:49.790Z,19.50
2019-04-07T01:17:19.093Z,19.50
2019-04-07T01:19:48.966Z,19.50
2019-04-07T01:22:18.581Z,19.50
2019-04-07T01:24:48.450Z,19.50
2019-04-07T01:27:18.255Z,19.50
2019-04-07T01:29:47.690Z,19.40
2019-04-07T01:32:16.745Z,19.40
2019-04-07T01:34:45.826Z,19.40
2019-04-07T01:37:15.477Z,19.40
2019-04-07T01:39:45.133Z,19.40
2019-04-07T01:42:25.875Z,19.40
2019-04-07T01:45:18.019Z,19.40
2019-04-07T01:48:08.090Z,19.40
2019-04-07T01:51:05.699Z,19.40
2019-04-07T01:54:00.861Z,19.40
2019-04-07T01:57:04.497Z,19.40
2019-04-07T01:59:46.358Z,19.40
2019-04-07T02:02:41.340Z,19.40
2019-04-07T02:05:28.885Z,19.30
2019-04-07T02:08:16.900Z,19.30
2019-04-07T02:10:55.010Z,19.30
2019-04-07T02:13:49.374Z,19.30
2019-04-07T02:16:33.138Z,19.30
2019-04-07T02:19:27.393Z,19.30
2019-04-07T02:22:02.665Z,19.30
2019-04-07T02:24:43.854Z,19.30
2019-04-07T02:27:25.216Z,19.30
2019-04-07T02:30:13.095Z,19.30
2019-04-07T02:33:04.493Z,19.20
2019-04-07T02:36:13.516Z,19.20
2019-04-07T02:38:49.876Z,19.20
2019-04-07T02:41:34.525Z,19.20
2019-04-07T02:44:22.060Z,19.20
2019-04-07T02:47:10.037Z,19.20
2019-04-07T02:50:14.082Z,19.20
2019-04-07T02:53:01.529Z,19.20
2019-04-07T02:55:48.410Z,19.20
2019-04-07T02:58:40.327Z,19.20
2019-04-07T03:01:26.220Z,19.20
2019-04-07T03:04:33.077Z,19.20
2019-04-07T03:07:25.008Z,19.20
2019-04-07T03:10:15.738Z,19.20
2019-04-07T03:13:16.824Z,19.10
2019-04-07T03:16:04.428Z,19.10
2019-04-07T03:18:45.051Z,19.10
2019-04-07T03:21:33.135Z,19.10
2019-04-07T03:24:12.375Z,19.10
2019-04-07T03:27:18.865Z,19.00
2019-04-07T03:30:11.087Z,19.00
2019-04-07T03:33:00.537Z,19.00
2019-04-07T03:35:56.900Z,19.00
2019-04-07T03:38:35.303Z,19.00
2019-04-07T03:41:24.293Z,19.00
2019-04-07T03:44:22.542Z,18.90
2019-04-07T03:47:10.136Z,18.90
2019-04-07T03:50:04.403Z,18.90
2019-04-07T03:52:46.934Z,18.90
2019-04-07T03:55:36.435Z,18.80
2019-04-07T03:58:14.279Z,18.80
2019-04-07T04:01:17.509Z,18.80
2019-04-07T04:04:02.020Z,18.80
2019-04-07T04:06:50.264Z,18.80
2019-04-07T04:09:30.351Z,18.80
2019-04-07T04:12:07.071Z,18.80
2019-04-07T04:14:45.375Z,18.80
2019-04-07T04:17:14.604Z,18.70
2019-04-07T04:19:44.026Z,18.70
2019-04-07T04:22:14.178Z,18.60
2019-04-07T04:24:43.681Z,18.70
2019-04-07T04:27:13.235Z,18.70
2019-04-07T04:29:43.561Z,18.70
2019-04-07T04:32:13.415Z,18.70
2019-04-07T04:34:43.211Z,18.70
2019-04-07T04:37:14.758Z,18.60
2019-04-07T04:39:44.704Z,18.60
2019-04-07T04:42:14.202Z,18.60
2019-04-07T04:44:44.241Z,18.60
2019-04-07T04:47:13.559Z,18.60
2019-04-07T04:49:43.447Z,18.60
2019-04-07T04:52:13.614Z,18.60
2019-04-07T04:54:42.910Z,18.60
2019-04-07T04:57:12.021Z,18.50
2019-04-07T04:59:42.187Z,18.50
2019-04-07T05:02:12.183Z,18.50
2019-04-07T05:04:41.941Z,18.50
2019-04-07T05:07:12.407Z,18.50
2019-04-07T05:09:47.722Z,18.50
2019-04-07T05:12:12.816Z,18.50
2019-04-07T05:14:42.848Z,18.50
2019-04-07T05:17:12.651Z,18.50
2019-04-07T05:19:42.847Z,18.50
2019-04-07T05:22:12.582Z,18.50
2019-04-07T05:24:42.249Z,18.50
2019-04-07T05:27:11.381Z,18.50
2019-04-07T05:29:41.389Z,18.40
2019-04-07T05:32:11.079Z,18.50
2019-04-07T05:34:40.320Z,18.50
2019-04-07T05:37:09.935Z,18.50
2019-04-07T05:39:39.511Z,18.50
2019-04-07T05:42:09.199Z,18.50
2019-04-07T05:44:39.792Z,18.50
2019-04-07T05:47:10.849Z,18.50
2019-04-07T05:49:39.757Z,18.50
2019-04-07T05:52:09.582Z,18.50
2019-04-07T05:54:39.433Z,18.50
2019-04-07T05:57:09.678Z,18.60
2019-04-07T05:59:39.889Z,18.60
2019-04-07T06:02:10.202Z,18.60
2019-04-07T06:04:39.445Z,18.60
2019-04-07T06:07:09.179Z,18.60
2019-04-07T06:09:38.271Z,18.60
2019-04-07T06:12:09.773Z,18.70
2019-04-07T06:14:38.151Z,18.70
2019-04-07T06:17:07.333Z,18.70
2019-04-07T06:19:40.556Z,18.70
2019-04-07T06:22:07.827Z,18.70
2019-04-07T06:24:38.407Z,18.70
2019-04-07T06:27:07.726Z,18.80
2019-04-07T06:29:38.897Z,18.80
2019-04-07T06:32:10.050Z,18.80
2019-04-07T06:34:41.107Z,18.80
2019-04-07T06:37:10.867Z,18.80
2019-04-07T06:39:41.539Z,18.80
2019-04-07T06:42:14.278Z,18.80
2019-04-07T06:44:44.584Z,18.80
2019-04-07T06:47:19.430Z,18.90
2019-04-07T06:49:57.517Z,18.90
2019-04-07T06:52:48.869Z,18.90
2019-04-07T06:55:28.491Z,19.00
2019-04-07T06:58:13.170Z,19.00
2019-04-07T07:01:04.638Z,19.10
2019-04-07T07:03:56.313Z,19.10
2019-04-07T07:06:53.605Z,19.10
2019-04-07T07:09:45.930Z,19.10
2019-04-07T07:12:31.339Z,19.10
2019-04-07T07:15:16.819Z,19.10
2019-04-07T07:18:08.023Z,19.10
2019-04-07T07:20:47.410Z,19.20
2019-04-07T07:23:20.036Z,19.20
2019-04-07T07:25:49.884Z,19.20
2019-04-07T07:28:21.119Z,19.20
2019-04-07T07:30:52.547Z,19.30
2019-04-07T07:33:21.388Z,19.30
2019-04-07T07:35:50.849Z,19.30
2019-04-07T07:38:20.358Z,19.30
2019-04-07T07:40:50.102Z,19.40
2019-04-07T07:43:19.863Z,19.40
2019-04-07T07:45:50.173Z,19.40
2019-04-07T07:48:20.892Z,19.50
2019-04-07T07:50:50.188Z,19.50
2019-04-07T07:53:23.699Z,19.50
2019-04-07T07:55:50.074Z,19.60
2019-04-07T07:58:20.370Z,19.60
2019-04-07T08:00:50.552Z,19.60
2019-04-07T08:03:22.658Z,19.70
2019-04-07T08:05:51.182Z,19.70
2019-04-07T08:08:21.205Z,19.70
2019-04-07T08:10:51.664Z,19.70
2019-04-07T08:13:21.352Z,19.80
2019-04-07T08:15:51.349Z,19.80
2019-04-07T08:18:21.026Z,19.90
2019-04-07T08:20:51.254Z,19.90
2019-04-07T08:23:20.988Z,20.00
2019-04-07T08:25:52.876Z,20.10
2019-04-07T08:28:21.666Z,20.20
2019-04-07T08:30:51.351Z,20.20
2019-04-07T08:33:20.700Z,20.30
2019-04-07T08:35:50.250Z,20.30
2019-04-07T08:38:22.520Z,20.30
2019-04-07T08:40:51.134Z,20.40
2019-04-07T08:43:22.810Z,20.40
2019-04-07T08:45:52.565Z,20.40
2019-04-07T08:48:21.698Z,20.50
2019-04-07T08:50:50.790Z,20.50
2019-04-07T08:53:19.766Z,20.60
2019-04-07T08:55:50.064Z,20.60
2019-04-07T08:58:25.832Z,20.70
2019-04-07T09:00:53.899Z,20.80
2019-04-07T09:03:23.245Z,20.80
2019-04-07T09:05:55.992Z,20.90
2019-04-07T09:08:23.054Z,20.90
2019-04-07T09:10:58.151Z,21.00
2019-04-07T09:13:27.697Z,21.10
2019-04-07T09:16:17.554Z,21.10
2019-04-07T09:19:01.745Z,21.20
2019-04-07T09:21:52.850Z,21.20
2019-04-07T09:24:35.918Z,21.30
2019-04-07T09:27:22.498Z,21.40
2019-04-07T09:30:00.035Z,21.40
2019-04-07T09:32:48.613Z,21.50
2019-04-07T09:35:36.200Z,21.60
2019-04-07T09:38:39.736Z,21.60
2019-04-07T09:41:23.437Z,21.70
2019-04-07T09:44:10.449Z,21.80
2019-04-07T09:46:54.186Z,21.80
2019-04-07T09:49:49.604Z,21.90
2019-04-07T09:52:33.950Z,21.90
2019-04-07T09:55:28.718Z,22.00
2019-04-07T09:58:12.446Z,22.10
2019-04-07T10:00:50.210Z,22.10
2019-04-07T10:03:41.652Z,22.10
2019-04-07T10:06:30.029Z,22.10
2019-04-07T10:09:30.334Z,22.10
2019-04-07T10:12:17.321Z,22.10
2019-04-07T10:15:05.538Z,22.00
2019-04-07T10:17:57.615Z,22.10
2019-04-07T10:20:45.779Z,22.20
2019-04-07T10:23:33.854Z,22.20
2019-04-07T10:26:13.057Z,22.10
2019-04-07T10:29:01.857Z,22.20
2019-04-07T10:31:59.283Z,22.30
2019-04-07T10:34:50.965Z,22.30
2019-04-07T10:37:38.896Z,22.40
2019-04-07T10:40:34.583Z,22.40
2019-04-07T10:43:18.487Z,22.50
2019-04-07T10:46:13.626Z,22.60
2019-04-07T10:49:01.408Z,22.60
2019-04-07T10:51:49.987Z,22.60
2019-04-07T10:54:37.109Z,22.70
2019-04-07T10:57:25.430Z,22.70
2019-04-07T11:00:05.847Z,22.70
2019-04-07T11:02:57.277Z,22.60
2019-04-07T11:05:41.383Z,22.80
2019-04-07T11:08:25.922Z,22.90
2019-04-07T11:11:20.295Z,22.90
2019-04-07T11:14:09.583Z,22.90
2019-04-07T11:16:46.414Z,23.00
2019-04-07T11:19:51.313Z,23.10
2019-04-07T11:22:48.958Z,23.10
2019-04-07T11:25:33.702Z,23.10
2019-04-07T11:28:34.143Z,23.00
2019-04-07T11:31:16.856Z,23.20
2019-04-07T11:33:50.842Z,23.10
2019-04-07T11:36:25.994Z,23.00
2019-04-07T11:39:13.625Z,23.00
2019-04-07T11:41:54.830Z,23.00
2019-04-07T11:44:49.822Z,22.90
2019-04-07T11:47:28.623Z,22.90
2019-04-07T11:50:16.838Z,23.00
2019-04-07T11:53:03.875Z,23.10
2019-04-07T11:55:45.418Z,23.10
2019-04-07T11:58:25.872Z,23.10
2019-04-07T12:01:14.457Z,23.10
2019-04-07T12:04:02.731Z,23.00
2019-04-07T12:09:44.074Z,23.10
2019-04-07T12:12:22.827Z,23.60
2019-04-07T12:15:10.163Z,23.60
2019-04-07T12:17:50.225Z,23.60
2019-04-07T12:20:34.099Z,23.80
2019-04-07T12:23:27.484Z,23.60
2019-04-07T12:26:24.771Z,23.50
2019-04-07T12:29:12.412Z,23.50
2019-04-07T12:31:52.155Z,23.50
2019-04-07T12:34:36.839Z,23.60
2019-04-07T12:37:22.301Z,23.60
2019-04-07T12:40:29.006Z,23.50
2019-04-07T12:43:04.559Z,23.40
2019-04-07T12:45:59.353Z,23.40
2019-04-07T12:48:50.055Z,23.30
2019-04-07T12:51:39.787Z,23.40
2019-04-07T12:54:15.706Z,23.30
2019-04-07T12:57:06.183Z,23.10
2019-04-07T12:59:51.798Z,23.00
2019-04-07T13:02:55.529Z,22.80
2019-04-07T13:05:35.635Z,22.80
2019-04-07T13:08:15.078Z,22.70
2019-04-07T13:10:59.053Z,22.60
2019-04-07T13:13:53.373Z,22.70
2019-04-07T13:16:47.462Z,22.80
2019-04-07T13:19:30.300Z,22.70
2019-04-07T13:22:21.537Z,22.70
2019-04-07T13:25:13.169Z,23.20
2019-04-07T13:27:58.982Z,22.70
2019-04-07T13:30:54.666Z,22.70
2019-04-07T13:33:48.851Z,22.70
2019-04-07T13:36:28.361Z,22.70
2019-04-07T13:39:17.930Z,22.60
2019-04-07T13:42:06.257Z,22.70
2019-04-07T13:44:54.749Z,22.70
2019-04-07T13:47:48.079Z,22.70
2019-04-07T13:50:40.581Z,22.80
2019-04-07T13:53:31.910Z,22.80
2019-04-07T13:56:10.013Z,22.70
2019-04-07T13:58:59.781Z,22.70
2019-04-07T14:01:35.739Z,22.70
2019-04-07T14:04:27.982Z,22.60
2019-04-07T14:07:18.156Z,22.80
2019-04-07T14:10:25.609Z,23.00
2019-04-07T14:13:22.724Z,23.00
2019-04-07T14:16:09.486Z,22.90
2019-04-07T14:18:56.984Z,22.90
2019-04-07T14:21:41.150Z,22.90
2019-04-07T14:24:27.381Z,22.90
2019-04-07T14:27:08.588Z,22.90
2019-04-07T14:29:57.374Z,22.90
2019-04-07T14:32:52.025Z,23.00
2019-04-07T14:35:58.683Z,22.90
2019-04-07T14:38:36.701Z,23.00
2019-04-07T14:41:24.728Z,23.10
2019-04-07T14:44:19.519Z,23.10
2019-04-07T14:47:15.042Z,23.10
2019-04-07T14:49:58.655Z,23.20
2019-04-07T14:52:51.841Z,23.10
2019-04-07T14:55:38.605Z,23.10
2019-04-07T14:58:51.266Z,23.00
2019-04-07T15:01:34.816Z,23.00
2019-04-07T15:04:05.027Z,22.90
2019-04-07T15:06:36.638Z,22.90
2019-04-07T15:09:24.022Z,22.90
2019-04-07T15:11:59.847Z,23.00
2019-04-07T15:14:31.405Z,23.10
2019-04-07T15:17:00.598Z,23.10
2019-04-07T15:19:30.016Z,23.30
2019-04-07T15:22:02.344Z,23.50
2019-04-07T15:24:35.318Z,23.60
2019-04-07T15:27:03.132Z,23.50
2019-04-07T15:29:34.301Z,23.40
2019-04-07T15:32:07.258Z,23.40
2019-04-07T15:34:39.532Z,23.40
2019-04-07T15:37:07.869Z,23.30
2019-04-07T15:39:38.383Z,23.10
2019-04-07T15:42:10.058Z,23.10
2019-04-07T15:44:41.272Z,23.00
2019-04-07T15:47:11.318Z,23.00
2019-04-07T15:49:40.823Z,22.90
2019-04-07T15:52:10.197Z,22.90
2019-04-07T15:54:40.570Z,22.80
2019-04-07T15:57:10.056Z,22.80
2019-04-07T15:59:42.092Z,22.80
2019-04-07T16:02:11.304Z,22.80
2019-04-07T16:04:41.867Z,22.70
2019-04-07T16:07:12.162Z,22.70
2019-04-07T16:09:51.066Z,22.60
2019-04-07T16:12:13.380Z,22.50
2019-04-07T16:14:45.874Z,22.50
2019-04-07T16:17:14.233Z,22.50
2019-04-07T16:19:47.690Z,22.50
2019-04-07T16:22:15.542Z,22.50
2019-04-07T16:24:45.197Z,22.40
2019-04-07T16:27:15.098Z,22.50
2019-04-07T16:29:46.208Z,22.60
2019-04-07T16:32:16.297Z,22.70
2019-04-07T16:34:46.257Z,22.70
2019-04-07T16:37:15.894Z,22.80
2019-04-07T16:39:45.714Z,22.90
2019-04-07T16:42:15.713Z,22.80
2019-04-07T16:44:45.893Z,22.80
2019-04-07T16:47:21.046Z,22.80
2019-04-07T16:49:48.672Z,22.80
2019-04-07T16:52:17.489Z,22.70
2019-04-07T16:54:47.199Z,22.60
2019-04-07T16:57:17.251Z,22.60
2019-04-07T16:59:47.834Z,22.70
2019-04-07T17:02:18.254Z,22.60
2019-04-07T17:04:49.515Z,22.50
2019-04-07T17:07:21.082Z,22.50
2019-04-07T17:09:50.843Z,22.50
2019-04-07T17:12:20.303Z,22.40
2019-04-07T17:14:49.518Z,22.50
2019-04-07T17:17:21.541Z,22.50
2019-04-07T17:19:49.707Z,22.50
2019-04-07T17:22:19.644Z,22.50
2019-04-07T17:24:49.858Z,22.60
2019-04-07T17:27:19.435Z,22.50
2019-04-07T17:29:53.154Z,22.50
2019-04-07T17:32:20.003Z,22.50
2019-04-07T17:34:49.773Z,22.50
2019-04-07T17:37:20.081Z,22.40
2019-04-07T17:40:01.443Z,22.30
2019-04-07T17:42:31.134Z,22.30
2019-04-07T17:45:20.421Z,22.30
2019-04-07T17:48:17.338Z,22.20
2019-04-07T17:51:07.352Z,22.20
2019-04-07T17:53:51.741Z,22.20
2019-04-07T17:56:35.754Z,22.20
2019-04-07T17:59:20.883Z,22.10
2019-04-07T18:02:12.234Z,22.10
2019-04-07T18:05:10.643Z,22.10
2019-04-07T18:07:58.500Z,22.00
2019-04-07T18:10:46.557Z,22.10
2019-04-07T18:13:49.050Z,22.00
2019-04-07T18:16:30.728Z,21.90
2019-04-07T18:19:21.962Z,21.90
2019-04-07T18:22:25.077Z,21.90
2019-04-07T18:25:16.156Z,21.90
2019-04-07T18:28:07.312Z,21.80
2019-04-07T18:30:51.585Z,21.80
2019-04-07T18:33:38.366Z,21.70
2019-04-07T18:36:18.006Z,21.70
2019-04-07T18:39:09.414Z,21.80
2019-04-07T18:41:56.103Z,21.60
2019-04-07T18:44:50.998Z,21.50
2019-04-07T18:47:28.234Z,21.40
2019-04-07T18:50:12.177Z,21.40
2019-04-07T18:53:12.766Z,21.40
2019-04-07T18:55:56.026Z,21.40
2019-04-07T18:58:49.218Z,21.30
2019-04-07T19:01:45.723Z,21.30
2019-04-07T19:04:38.014Z,21.30
2019-04-07T19:07:39.910Z,21.30
2019-04-07T19:10:34.552Z,21.30
2019-04-07T19:13:17.398Z,21.30
2019-04-07T19:16:00.411Z,21.20
2019-04-07T19:19:07.066Z,21.30
2019-04-07T19:21:47.562Z,21.30
2019-04-07T19:24:34.387Z,21.20
2019-04-07T19:27:27.798Z,21.10
2019-04-07T19:30:26.568Z,21.00
2019-04-07T19:33:03.327Z,21.00
2019-04-07T19:35:50.216Z,21.00
2019-04-07T19:38:30.210Z,21.10
2019-04-07T19:41:24.302Z,21.00
2019-04-07T19:44:17.556Z,20.80
2019-04-07T19:47:21.378Z,20.70
2019-04-07T19:50:15.319Z,20.70
2019-04-07T19:53:05.791Z,20.60
2019-04-07T19:55:58.443Z,20.50
2019-04-07T19:58:47.362Z,20.50
2019-04-07T20:01:35.719Z,20.50
2019-04-07T20:04:44.233Z,20.50
2019-04-07T20:07:38.159Z,20.50
2019-04-07T20:10:33.759Z,20.60
2019-04-07T20:13:21.971Z,20.60
2019-04-07T20:15:58.800Z,20.60
2019-04-07T20:18:43.803Z,20.60
2019-04-07T20:21:34.866Z,20.60
2019-04-07T20:24:04.416Z,20.60
2019-04-07T20:26:51.019Z,20.40
2019-04-07T20:29:38.092Z,20.40
2019-04-07T20:32:33.696Z,20.40
2019-04-07T20:35:25.952Z,20.40
2019-04-07T20:38:19.254Z,20.30
2019-04-07T20:40:53.858Z,20.30
2019-04-07T20:43:46.346Z,20.30
2019-04-07T20:46:41.647Z,20.20
2019-04-07T20:49:29.942Z,20.20
2019-04-07T20:52:13.312Z,20.10
2019-04-07T20:55:03.792Z,20.10
2019-04-07T20:57:44.518Z,20.10
2019-04-07T21:00:51.906Z,20.10
2019-04-07T21:03:28.872Z,19.90
2019-04-07T21:06:25.326Z,20.00
2019-04-07T21:09:15.265Z,20.00
2019-04-07T21:11:57.314Z,20.00
2019-04-07T21:14:51.506Z,20.10
2019-04-07T21:17:33.014Z,20.10
2019-04-07T21:20:21.090Z,20.10
2019-04-07T21:23:02.885Z,20.10
2019-04-07T21:25:55.970Z,20.00
2019-04-07T21:28:50.425Z,20.00
2019-04-07T21:31:57.223Z,20.00
2019-04-07T21:34:42.547Z,20.00
2019-04-07T21:37:30.643Z,20.00
2019-04-07T21:40:13.209Z,20.00
2019-04-07T21:43:03.571Z,20.00
2019-04-07T21:45:51.591Z,20.00
2019-04-07T21:48:47.461Z,20.00
2019-04-07T21:51:29.022Z,20.00
2019-04-07T21:54:04.139Z,20.00
2019-04-07T21:56:48.247Z,20.00
2019-04-07T21:59:40.390Z,20.00
2019-04-07T22:02:45.619Z,20.00
2019-04-07T22:05:43.333Z,20.00
2019-04-07T22:08:19.777Z,20.00
2019-04-07T22:10:51.370Z,20.00
2019-04-07T22:13:21.630Z,19.90
2019-04-07T22:15:56.311Z,19.90
2019-04-07T22:18:22.110Z,19.90
2019-04-07T22:20:54.393Z,19.90
2019-04-07T22:23:22.938Z,19.90
2019-04-07T22:25:52.560Z,19.80
2019-04-07T22:28:22.639Z,19.80
2019-04-07T22:30:53.241Z,19.80
2019-04-07T22:33:25.134Z,19.90
2019-04-07T22:35:53.391Z,19.90
2019-04-07T22:38:23.741Z,19.90
2019-04-07T22:40:54.172Z,19.90
2019-04-07T22:43:24.837Z,19.90
2019-04-07T22:46:04.113Z,19.90
2019-04-07T22:48:27.222Z,20.00
2019-04-07T22:50:56.417Z,19.90
2019-04-07T22:53:29.558Z,19.90
2019-04-07T22:55:59.160Z,19.90
2019-04-07T22:58:31.630Z,19.90
2019-04-07T23:01:01.115Z,19.90
2019-04-07T23:03:31.285Z,19.90
2019-04-07T23:06:01.263Z,19.80
2019-04-07T23:08:30.302Z,19.90
2019-04-07T23:11:00.476Z,19.80
2019-04-07T23:13:30.095Z,19.80
2019-04-07T23:16:08.736Z,19.80
2019-04-07T23:18:30.682Z,19.80
2019-04-07T23:21:01.065Z,19.80
2019-04-07T23:23:31.043Z,19.80
2019-04-07T23:26:00.266Z,19.80
2019-04-07T23:28:29.350Z,19.80
2019-04-07T23:30:59.031Z,19.80
2019-04-07T23:33:28.022Z,19.80
2019-04-07T23:35:57.494Z,19.70
2019-04-07T23:38:26.713Z,19.70
2019-04-07T23:40:55.697Z,19.70
2019-04-07T23:43:25.038Z,19.70
2019-04-07T23:45:54.016Z,19.70
2019-04-07T23:48:23.220Z,19.70
2019-04-07T23:50:52.938Z,19.70
2019-04-07T23:53:58.590Z,19.70
2019-04-07T23:56:28.206Z,19.60
2019-04-07T23:58:57.256Z,19.60
